Station: Tasman Island  

  Atmospheric Gas Attenuation - ITU Rec 676-11   ----------------- dB/100km -----------------
Date Time Temp RH % AH g/m3 Dew Point Wind Direction Speed kph Gust kph Barometer mB Rainfall Since 9am 24GHz 47GHz 76GHz 122GHz 134GHz 241GHz
05/09 17:50 10.3 97 9.29 9.8 4 9 996.3 7.4 21.3 27.5 43.7 115.2 111.1 382.7
05/09 17:40 10.2 97 9.23 9.7 9 17 996.2 7.4 21.1 27.4 43.5 114.6 110.4 380.2
05/09 17:30 10.4 97 9.35 9.9 4 17 996.1 7.4 21.4 27.5 43.9 115.7 111.8 385.1
05/09 17:20 10.4 97 9.35 9.9 0 0 996 7.2 21.4 27.5 43.9 115.7 111.8 385.0
05/09 17:10 10.3 97 9.29 9.8 0 0 995.8 7 21.3 27.4 43.7 115.1 111.1 382.5
05/09 17:00 10.4 98 9.45 10.1 2 13 995.6 7 21.6 27.7 44.3 116.8 113.1 389.8
05/09 16:50 10.5 98 9.51 10.2 6 17 995.6 7 21.7 27.7 44.5 117.3 113.8 392.3
05/09 16:40 10.1 98 9.27 9.8 13 20 995.3 6.8 21.2 27.4 43.7 115.1 111.0 382.4
05/09 16:30 10.5 98 9.51 10.2 13 20 995.3 6.6 21.7 27.7 44.5 117.3 113.8 392.2
05/09 16:20 10.4 98 9.45 10.1 17 22 995.2 5.8 21.6 27.7 44.3 116.7 113.1 389.7
05/09 16:10 10.6 98 9.57 10.3 19 28 995.4 4.8 21.9 27.8 44.7 117.8 114.5 394.7
05/09 16:00 10.5 98 9.51 10.2 17 24 995.5 2.8 21.7 27.7 44.5 117.3 113.8 392.2
05/09 15:50 10.8 98 9.69 10.5 19 30 995.6 2.2 22.1 28.0 45.1 118.9 115.9 399.6
05/09 15:40 10.9 98 9.75 10.6 19 28 995.6 0.8 22.2 28.0 45.3 119.4 116.6 402.1
05/09 15:30 10.8 98 9.69 10.5 19 28 995.6 0.4 22.1 28.0 45.1 118.9 115.9 399.6
05/09 15:20 11.1 98 9.87 10.8 17 22 995.6 0.2 22.5 28.2 45.7 120.5 118.0 407.0
05/09 15:10 11.1 98 9.87 10.8 19 26 995.5 0.2 22.5 28.2 45.7 120.5 118.0 406.9
05/09 15:00 11 98 9.81 10.7 17 26 995.5 0.2 22.4 28.1 45.5 120.0 117.3 404.5
05/09 14:50 11 98 9.81 10.7 19 24 995.4 0.2 22.4 28.1 45.5 119.9 117.3 404.5
05/09 14:40 11 98 9.81 10.7 17 24 995.4 0.2 22.4 28.1 45.5 119.9 117.3 404.5
05/09 14:30 11.1 98 9.87 10.8 17 24 995.3 0.2 22.5 28.2 45.7 120.5 118.0 406.9
05/09 14:20 10.9 98 9.75 10.6 17 28 995.4 0.2 22.2 28.0 45.3 119.4 116.6 402.0
05/09 14:10 11 98 9.81 10.7 17 24 995.8 0.2 22.4 28.1 45.5 120.0 117.4 404.6
05/09 14:00 10.9 98 9.75 10.6 15 24 996 0.2 22.2 28.0 45.4 119.5 116.7 402.2
05/09 13:50 11.1 98 9.87 10.8 13 20 996.1 0.2 22.5 28.2 45.8 120.6 118.1 407.1
05/09 13:40 10.8 98 9.69 10.5 17 26 996.4 0.2 22.1 28.0 45.2 119.0 116.0 399.9
05/09 13:30 10.8 98 9.69 10.5 17 30 996.5 0.2 22.1 28.0 45.2 119.0 116.0 399.9
05/09 13:20 11 98 9.81 10.7 15 26 996.6 0.2 22.4 28.1 45.6 120.1 117.4 404.9
05/09 13:10 11 98 9.81 10.7 17 26 996.9 0.2 22.4 28.2 45.6 120.1 117.5 405.0
05/09 13:00 11.1 98 9.87 10.8 13 24 997.1 0.2 22.5 28.2 45.8 120.7 118.2 407.5
05/09 12:50 11.3 98 10 11 17 26 997.3 0.2 22.8 28.4 46.3 121.9 119.7 412.9
05/09 12:40 11.1 98 9.87 10.8 17 26 997.8 0.2 22.5 28.3 45.8 120.8 118.2 407.7
05/09 12:30 10.9 98 9.75 10.6 19 28 998 0.2 22.2 28.1 45.4 119.7 116.9 402.9
05/09 12:20 10.9 98 9.75 10.6 19 28 998.3 0.2 22.2 28.1 45.5 119.8 116.9 403.0
05/09 12:10 11.1 97 9.77 10.6 20 32 998.4 0.2 22.3 28.1 45.4 119.7 116.9 402.9
05/09 12:00 11.3 97 9.9 10.8 19 28 998.5 0.2 22.5 28.3 45.9 120.9 118.4 408.3
05/09 11:50 11.2 97 9.83 10.7 17 28 998.9 0 22.4 28.2 45.7 120.3 117.6 405.5
05/09 11:40 11.3 97 9.9 10.8 19 26 999.3 0 22.5 28.3 45.9 121.0 118.5 408.6
05/09 11:30 11.4 96 9.86 10.8 19 28 999.5 0 22.4 28.2 45.7 120.4 117.8 406.2
05/09 11:20 11.1 96 9.67 10.5 19 28 999.8 0 22.0 28.0 45.1 118.7 115.6 398.4
05/09 11:10 10.9 96 9.55 10.3 19 30 999.9 0 21.8 27.9 44.7 117.6 114.2 393.6
05/09 11:00 11.1 96 9.67 10.5 20 30 1000.2 0 22.0 28.0 45.1 118.7 115.6 398.6
05/09 10:50 11 96 9.61 10.4 19 28 1000.5 0 21.9 27.9 44.9 118.2 115.0 396.2
05/09 10:40 11.2 96 9.73 10.6 19 26 1000.5 0 22.2 28.1 45.3 119.3 116.4 401.1
05/09 10:30 11.2 96 9.73 10.6 20 28 1000.7 0 22.2 28.1 45.3 119.3 116.4 401.2
05/09 10:20 11.3 95 9.69 10.5 22 32 1000.9 0 22.1 28.0 45.1 118.7 115.7 398.7
05/09 10:10 11.3 94 9.59 10.4 22 33 1000.9 0 21.9 27.8 44.7 117.6 114.3 393.8
05/09 10:00 10.9 94 9.35 10 20 33 1001.1 0 21.4 27.6 43.9 115.5 111.5 384.1
05/09 09:50 11.2 94 9.53 10.3 19 26 1001.4 0 21.7 27.8 44.5 117.1 113.6 391.5
05/09 09:40 11 94 9.41 10.1 19 26 1001.6 0 21.5 27.6 44.1 116.1 112.3 386.7
05/09 09:30 10.8 93 9.19 9.7 19 24 1001.8 0 21.0 27.3 43.3 113.9 109.5 377.0
05/09 09:20 10.7 92 9.04 9.5 19 26 1002 0 20.7 27.1 42.7 112.4 107.5 370.2
05/09 09:10 10.5 92 8.92 9.3 19 26 1002.1 0 20.5 27.0 42.3 111.3 106.2 365.4
05/09 09:00 10.4 93 8.97 9.3 17 26 1002.3 0 20.6 27.1 42.6 112.1 107.0 368.3
05/09 08:50 10.3 92 8.81 9.1 17 24 1002.4 0 20.2 26.9 42.0 110.4 104.9 361.1
05/09 08:40 10.3 90 8.62 8.7 17 22 1002.8 0 19.8 26.6 41.2 108.3 102.4 352.0
05/09 08:30 10.2 90 8.57 8.6 15 22 1002.8 0 19.7 26.5 41.0 107.9 101.8 350.0
05/09 08:20 10.4 89 8.58 8.7 17 26 1003.1 0 19.7 26.5 41.0 107.8 101.7 349.7
05/09 08:10 10.5 86 8.34 8.3 17 26 1003 0 19.2 26.0 39.9 104.9 98.3 337.7
05/09 08:00 10.5 83 8.05 7.7 17 22 1003.2 0 18.6 25.6 38.8 101.8 94.4 324.1
05/09 07:50 10.3 86 8.24 8.1 17 24 1003.3 0 19.0 25.9 39.6 104.1 97.2 333.9
05/09 07:40 10.5 81 7.86 7.4 17 24 1003.3 0 18.2 25.3 38.0 99.7 91.8 315.2
05/09 07:30 10.4 81 7.81 7.3 11 24 1003.3 0 18.1 25.2 37.8 99.3 91.3 313.2
05/09 07:20 10.5 78 7.57 6.8 9 19 1003.4 0 17.5 24.8 36.8 96.6 88.0 301.7
05/09 07:10 10.2 81 7.71 7.1 11 20 1003.4 0 17.9 25.1 37.5 98.5 90.2 309.4
05/09 07:00 10.8 76 7.51 6.7 9 13 1003.2 0 17.4 24.6 36.4 95.6 86.8 297.7
05/09 06:50 11.2 69 7 5.7 6 13 1003.1 0 16.3 23.7 34.2 89.8 79.8 273.1
05/09 06:40 11.1 70 7.05 5.8 6 11 1003.2 0 16.4 23.8 34.5 90.4 80.6 275.7
05/09 06:30 10.9 71 7.06 5.9 9 15 1003.4 0 16.4 23.9 34.6 90.8 80.9 276.9
05/09 06:20 10.5 73 7.08 5.9 7 13 1003.1 0 16.5 24.0 34.9 91.4 81.6 279.2
05/09 06:10 10.3 76 7.28 6.3 6 13 1003.3 0 16.9 24.4 35.8 93.8 84.4 289.1
05/09 06:00 10.1 77 7.28 6.3 9 15 1003.6 0 16.9 24.4 35.9 94.0 84.6 289.9
05/09 05:50 10 77 7.24 6.2 7 20 1003.9 0 16.9 24.4 35.8 93.8 84.2 288.5
05/09 05:40 9.6 80 7.33 6.3 9 19 1004 0 17.1 24.7 36.3 95.2 85.9 294.2
05/09 05:30 9.7 81 7.47 6.6 11 17 1004 0 17.4 24.9 36.8 96.6 87.6 300.3
05/09 05:20 9.9 78 7.28 6.3 9 17 1004 0 16.9 24.5 36.0 94.3 84.9 290.7
05/09 05:10 9.9 78 7.28 6.3 9 17 1004.2 0 16.9 24.5 36.0 94.3 84.9 290.8
05/09 05:00 9.8 81 7.52 6.7 6 11 1004.3 0 17.5 24.9 37.0 97.0 88.2 302.3
05/09 04:50 10 80 7.52 6.7 9 17 1004.4 0 17.5 24.9 36.9 96.8 88.0 301.6
05/09 04:40 10.1 79 7.47 6.6 15 26 1004.3 0 17.3 24.8 36.6 96.1 87.2 298.8
05/09 04:30 10 78 7.33 6.3 13 24 1004.5 0 17.0 24.6 36.1 94.8 85.5 292.8
05/09 04:20 10.2 78 7.42 6.5 11 19 1004.5 0 17.2 24.7 36.4 95.5 86.4 296.2
05/09 04:10 10.1 78 7.38 6.4 15 26 1004.7 0 17.1 24.7 36.3 95.2 86.0 294.8
05/09 04:00 10.1 74 7 5.7 11 20 1004.4 0 16.3 24.0 34.8 91.1 81.0 277.3
05/09 03:50 10.1 73 6.9 5.5 13 20 1004.3 0 16.1 23.9 34.4 90.1 79.7 272.7
05/09 03:40 10 72 6.77 5.2 13 22 1004.3 0 15.8 23.7 33.9 88.8 78.1 267.2
05/09 03:30 9.9 72 6.72 5.1 11 19 1004.3 0 15.7 23.6 33.8 88.4 77.6 265.2
05/09 03:20 10 71 6.67 5 11 20 1004.4 0 15.6 23.5 33.5 87.8 76.9 262.7
05/09 03:10 9.9 72 6.72 5.1 11 20 1004.5 0 15.7 23.6 33.8 88.4 77.6 265.3
05/09 03:00 9.9 72 6.72 5.1 11 24 1004.7 0 15.7 23.7 33.8 88.5 77.6 265.3
05/09 02:50 10.1 72 6.81 5.3 11 22 1004.9 0 15.9 23.7 34.1 89.2 78.6 268.8
05/09 02:40 10.1 70 6.62 4.9 13 22 1005.2 0 15.5 23.5 33.3 87.2 76.2 260.3
05/09 02:30 10 71 6.67 5 13 20 1005.3 0 15.6 23.6 33.6 87.9 76.9 262.9
05/09 02:20 9.8 72 6.68 5 13 24 1005.4 0 15.7 23.6 33.7 88.2 77.3 264.0
05/09 02:10 9.8 72 6.68 5 15 24 1005.6 0 15.7 23.6 33.7 88.2 77.3 264.1
05/09 02:00 9.7 72 6.64 4.9 13 24 1005.7 0 15.6 23.6 33.6 87.9 76.9 262.6
05/09 01:50 9.8 71 6.59 4.8 17 26 1005.9 0 15.5 23.5 33.4 87.3 76.1 260.1
05/09 01:40 9.6 70 6.41 4.4 17 26 1006 0 15.1 23.3 32.8 85.7 74.0 252.6
05/09 01:30 9.7 70 6.46 4.5 17 26 1006.1 0 15.2 23.3 32.9 86.1 74.6 254.6
05/09 01:20 9.5 69 6.28 4.1 17 26 1006 0 14.8 23.1 32.3 84.5 72.5 247.1

Last Refresh: 05-Sep-2026 17:27:00

Bureau of Meteorology